createdAt,value
2017-10-18T00:00:58.621Z,958.99
2017-10-18T00:02:52.034Z,959.00
2017-10-18T00:03:52.016Z,959.01
2017-10-18T00:05:45.407Z,958.98
2017-10-18T00:06:45.427Z,959.06
2017-10-18T00:08:38.832Z,959.07
2017-10-18T00:09:38.808Z,959.02
2017-10-18T00:11:32.194Z,959.07
2017-10-18T00:12:32.203Z,959.03
2017-10-18T00:14:25.609Z,959.09
2017-10-18T00:15:25.597Z,959.06
2017-10-18T00:17:18.986Z,959.06
2017-10-18T00:18:18.995Z,959.08
2017-10-18T00:20:12.409Z,959.04
2017-10-18T00:21:12.394Z,959.04
2017-10-18T00:23:05.789Z,959.03
2017-10-18T00:24:05.788Z,959.04
2017-10-18T00:25:59.201Z,959.05
2017-10-18T00:26:59.184Z,959.03
2017-10-18T00:28:52.580Z,959.00
2017-10-18T00:29:52.588Z,959.04
2017-10-18T00:31:45.994Z,959.03
2017-10-18T00:32:45.986Z,959.00
2017-10-18T00:34:39.368Z,958.99
2017-10-18T00:35:39.375Z,958.94
2017-10-18T00:37:32.780Z,958.92
2017-10-18T00:39:47.158Z,958.86
2017-10-18T00:40:47.163Z,958.88
2017-10-18T00:42:40.567Z,958.90
2017-10-18T00:43:40.555Z,958.87
2017-10-18T00:45:33.941Z,958.88
2017-10-18T00:46:33.947Z,958.88
2017-10-18T00:48:27.388Z,958.88
2017-10-18T00:49:27.374Z,958.90
2017-10-18T00:51:20.764Z,958.88
2017-10-18T00:52:20.769Z,958.88
2017-10-18T00:54:14.177Z,958.82
2017-10-18T00:55:14.166Z,958.82
2017-10-18T00:57:07.549Z,958.79
2017-10-18T00:58:07.556Z,958.83
2017-10-18T01:00:00.961Z,958.79
2017-10-18T01:01:00.953Z,958.78
2017-10-18T01:02:54.335Z,958.76
2017-10-18T01:03:54.344Z,958.77
2017-10-18T01:05:47.755Z,958.75
2017-10-18T01:06:47.732Z,958.76
2017-10-18T01:08:41.128Z,958.73
2017-10-18T01:09:41.135Z,958.74
2017-10-18T01:11:34.534Z,958.72
2017-10-18T01:12:34.519Z,958.71
2017-10-18T01:14:27.910Z,958.66
2017-10-18T01:15:27.912Z,958.64
2017-10-18T01:17:21.336Z,958.60
2017-10-18T01:18:21.310Z,958.57
2017-10-18T01:20:14.708Z,958.54
2017-10-18T01:21:14.709Z,958.56
2017-10-18T01:23:08.117Z,958.51
2017-10-18T01:24:08.106Z,958.48
2017-10-18T01:26:01.589Z,958.50
2017-10-18T01:27:01.574Z,958.49
2017-10-18T01:28:54.995Z,958.44
2017-10-18T01:29:54.978Z,958.45
2017-10-18T01:31:48.368Z,958.45
2017-10-18T01:32:48.374Z,958.42
2017-10-18T01:34:41.790Z,958.43
2017-10-18T01:35:41.764Z,958.43
2017-10-18T01:37:35.151Z,958.40
2017-10-18T01:38:35.162Z,958.38
2017-10-18T01:40:28.564Z,958.34
2017-10-18T01:41:28.559Z,958.36
2017-10-18T01:43:21.938Z,958.33
2017-10-18T01:44:21.944Z,958.33
2017-10-18T01:46:15.372Z,958.33
2017-10-18T01:47:15.337Z,958.31
2017-10-18T01:49:08.729Z,958.38
2017-10-18T01:50:08.729Z,958.32
2017-10-18T01:52:02.141Z,958.37
2017-10-18T01:53:02.122Z,958.36
2017-10-18T01:54:55.509Z,958.31
2017-10-18T01:55:55.514Z,958.33
2017-10-18T01:57:48.947Z,958.35
2017-10-18T01:58:48.912Z,958.31
2017-10-18T02:00:42.304Z,958.33
2017-10-18T02:01:42.301Z,958.31
2017-10-18T02:03:35.735Z,958.34
2017-10-18T02:04:35.705Z,958.35
2017-10-18T02:06:29.090Z,958.28
2017-10-18T02:07:29.096Z,958.27
2017-10-18T02:09:22.503Z,958.28
2017-10-18T02:10:22.489Z,958.22
2017-10-18T02:12:15.887Z,958.26
2017-10-18T02:13:15.913Z,958.26
2017-10-18T02:15:09.321Z,958.23
2017-10-18T02:16:09.283Z,958.24
2017-10-18T02:18:02.673Z,958.20
2017-10-18T02:19:02.679Z,958.20
2017-10-18T02:20:56.102Z,958.17
2017-10-18T02:21:56.067Z,958.16
2017-10-18T02:23:49.456Z,958.18
2017-10-18T02:24:49.472Z,958.16
2017-10-18T02:26:42.874Z,958.11
2017-10-18T02:27:42.854Z,958.15
2017-10-18T02:29:36.241Z,958.13
2017-10-18T02:30:36.248Z,958.11
2017-10-18T02:32:29.659Z,958.14
2017-10-18T02:33:29.638Z,958.11
2017-10-18T02:35:23.028Z,958.09
2017-10-18T02:36:23.030Z,958.09
2017-10-18T02:38:16.455Z,958.08
2017-10-18T02:39:16.422Z,958.09
2017-10-18T02:41:09.819Z,958.06
2017-10-18T02:42:09.814Z,958.08
2017-10-18T02:44:03.266Z,958.07
2017-10-18T02:45:03.250Z,958.09
2017-10-18T02:46:56.631Z,958.08
2017-10-18T02:47:56.638Z,958.06
2017-10-18T02:49:50.072Z,958.06
2017-10-18T02:50:50.038Z,958.02
2017-10-18T02:52:43.423Z,957.99
2017-10-18T02:53:43.429Z,958.02
2017-10-18T02:55:36.845Z,958.01
2017-10-18T02:56:36.824Z,957.97
2017-10-18T02:58:30.208Z,957.96
2017-10-18T02:59:30.215Z,957.96
2017-10-18T03:01:23.622Z,957.93
2017-10-18T03:02:23.603Z,957.95
2017-10-18T03:04:16.993Z,957.95
2017-10-18T03:05:16.995Z,957.94
2017-10-18T03:07:10.410Z,957.92
2017-10-18T03:08:10.391Z,957.89
2017-10-18T03:10:03.781Z,957.92
2017-10-18T03:11:03.783Z,957.91
2017-10-18T03:12:57.213Z,957.88
2017-10-18T03:13:57.173Z,957.88
2017-10-18T03:15:50.570Z,957.84
2017-10-18T03:16:50.572Z,957.86
2017-10-18T03:18:43.970Z,957.86
2017-10-18T03:19:43.964Z,957.87
2017-10-18T03:21:37.350Z,957.89
2017-10-18T03:22:37.351Z,957.90
2017-10-18T03:24:30.761Z,957.95
2017-10-18T03:25:30.751Z,957.92
2017-10-18T03:27:24.130Z,957.92
2017-10-18T03:28:24.133Z,957.91
2017-10-18T03:30:17.546Z,957.86
2017-10-18T03:31:17.527Z,957.89
2017-10-18T03:33:10.918Z,957.88
2017-10-18T03:34:10.918Z,957.89
2017-10-18T03:36:04.325Z,957.87
2017-10-18T03:37:04.312Z,957.85
2017-10-18T03:38:57.700Z,957.83
2017-10-18T03:39:57.702Z,957.86
2017-10-18T03:41:51.108Z,957.83
2017-10-18T03:42:51.094Z,957.80
2017-10-18T03:44:44.506Z,957.77
2017-10-18T03:45:44.504Z,957.76
2017-10-18T03:47:38.092Z,957.78
2017-10-18T03:48:37.902Z,957.78
2017-10-18T03:50:31.282Z,957.79
2017-10-18T03:51:31.286Z,957.76
2017-10-18T03:53:24.700Z,957.77
2017-10-18T03:54:24.678Z,957.74
2017-10-18T03:56:18.070Z,957.72
2017-10-18T03:57:18.075Z,957.72
2017-10-18T03:59:12.882Z,957.72
2017-10-18T04:00:12.829Z,957.66
2017-10-18T04:02:06.240Z,957.68
2017-10-18T04:03:06.244Z,957.67
2017-10-18T04:04:59.655Z,957.71
2017-10-18T04:05:59.637Z,957.73
2017-10-18T04:07:53.032Z,957.69
2017-10-18T04:08:53.040Z,957.77
2017-10-18T04:10:46.465Z,957.72
2017-10-18T04:11:46.426Z,957.71
2017-10-18T04:13:39.816Z,957.69
2017-10-18T04:14:39.821Z,957.67
2017-10-18T04:16:33.243Z,957.65
2017-10-18T04:17:33.221Z,957.64
2017-10-18T04:19:26.617Z,957.66
2017-10-18T04:20:26.632Z,957.64
2017-10-18T04:22:20.019Z,957.64
2017-10-18T04:23:20.006Z,957.65
2017-10-18T04:25:13.394Z,957.62
2017-10-18T04:26:13.396Z,957.58
2017-10-18T04:28:06.801Z,957.59
2017-10-18T04:29:06.789Z,957.61
2017-10-18T04:31:00.175Z,957.60
2017-10-18T04:32:00.181Z,957.60
2017-10-18T04:33:53.584Z,957.62
2017-10-18T04:34:53.570Z,957.60
2017-10-18T04:36:46.955Z,957.61
2017-10-18T04:37:46.961Z,957.57
2017-10-18T04:39:40.393Z,957.55
2017-10-18T04:40:40.352Z,957.54
2017-10-18T04:42:33.738Z,957.50
2017-10-18T04:43:33.740Z,957.55
2017-10-18T04:45:27.310Z,957.51
2017-10-18T04:46:27.135Z,957.55
2017-10-18T04:48:20.518Z,957.53
2017-10-18T04:49:20.525Z,957.51
2017-10-18T04:51:13.939Z,957.53
2017-10-18T04:52:13.938Z,957.50
2017-10-18T04:54:07.435Z,957.51
2017-10-18T04:55:07.432Z,957.51
2017-10-18T04:57:00.839Z,957.51
2017-10-18T04:58:00.838Z,957.53
2017-10-18T04:59:54.245Z,957.52
2017-10-18T05:00:54.253Z,957.53
2017-10-18T05:02:47.667Z,957.50
2017-10-18T05:03:47.646Z,957.51
2017-10-18T05:05:41.036Z,957.51
2017-10-18T05:06:41.036Z,957.51
2017-10-18T05:08:34.451Z,957.53
2017-10-18T05:09:34.425Z,957.53
2017-10-18T05:11:27.817Z,957.56
2017-10-18T05:12:27.813Z,957.52
2017-10-18T05:14:21.233Z,957.52
2017-10-18T05:15:21.219Z,957.49
2017-10-18T05:17:14.599Z,957.51
2017-10-18T05:18:14.616Z,957.54
2017-10-18T05:20:08.017Z,957.52
2017-10-18T05:21:08.000Z,957.52
2017-10-18T05:23:01.395Z,957.54
2017-10-18T05:24:01.404Z,957.55
2017-10-18T05:25:54.805Z,957.54
2017-10-18T05:26:54.791Z,957.57
2017-10-18T05:28:48.180Z,957.53
2017-10-18T05:29:48.181Z,957.52
2017-10-18T05:31:41.586Z,957.52
2017-10-18T05:32:41.573Z,957.50
2017-10-18T05:34:34.960Z,957.52
2017-10-18T05:35:34.962Z,957.50
2017-10-18T05:37:28.366Z,957.53
2017-10-18T05:38:28.358Z,957.50
2017-10-18T05:40:21.753Z,957.45
2017-10-18T05:41:21.741Z,957.46
2017-10-18T05:43:15.148Z,957.44
2017-10-18T05:44:15.134Z,957.46
2017-10-18T05:46:08.522Z,957.43
2017-10-18T05:47:08.649Z,957.47
2017-10-18T05:49:02.130Z,957.42
2017-10-18T05:50:02.115Z,957.40
2017-10-18T05:51:55.510Z,957.43
2017-10-18T05:52:55.510Z,957.34
2017-10-18T05:54:48.919Z,957.36
2017-10-18T05:55:48.905Z,957.34
2017-10-18T05:57:42.284Z,957.37
2017-10-18T05:58:42.291Z,957.38
2017-10-18T06:00:35.703Z,957.36
2017-10-18T06:01:35.691Z,957.35
2017-10-18T06:03:29.075Z,957.35
2017-10-18T06:04:29.072Z,957.36
2017-10-18T06:06:22.480Z,957.32
2017-10-18T06:07:22.466Z,957.32
2017-10-18T06:09:15.863Z,957.35
2017-10-18T06:10:15.861Z,957.28
2017-10-18T06:12:09.272Z,957.30
2017-10-18T06:13:09.258Z,957.28
2017-10-18T06:15:02.641Z,957.30
2017-10-18T06:16:02.646Z,957.30
2017-10-18T06:17:56.073Z,957.30
2017-10-18T06:18:56.039Z,957.28
2017-10-18T06:20:49.425Z,957.29
2017-10-18T06:21:49.428Z,957.30
2017-10-18T06:23:42.860Z,957.33
2017-10-18T06:24:42.829Z,957.26
2017-10-18T06:26:36.261Z,957.24
2017-10-18T06:27:36.241Z,957.25
2017-10-18T06:29:29.661Z,957.29
2017-10-18T06:30:29.679Z,957.30
2017-10-18T06:32:24.106Z,957.30
2017-10-18T06:33:24.071Z,957.33
2017-10-18T06:35:17.489Z,957.34
2017-10-18T06:36:17.498Z,957.34
2017-10-18T06:38:11.880Z,957.36
2017-10-18T06:39:11.872Z,957.33
2017-10-18T06:41:05.263Z,957.35
2017-10-18T06:42:05.277Z,957.37
2017-10-18T06:43:58.678Z,957.35
2017-10-18T06:44:58.661Z,957.39
2017-10-18T06:46:52.049Z,957.40
2017-10-18T06:47:52.057Z,957.39
2017-10-18T06:49:45.754Z,957.38
2017-10-18T06:50:45.423Z,957.43
2017-10-18T06:52:38.829Z,957.40
2017-10-18T06:53:38.834Z,957.38
2017-10-18T06:55:32.249Z,957.41
2017-10-18T06:56:32.216Z,957.39
2017-10-18T06:58:25.662Z,957.42
2017-10-18T06:59:25.645Z,957.41
2017-10-18T07:01:19.008Z,957.45
2017-10-18T07:02:19.010Z,957.42
2017-10-18T07:04:12.428Z,957.44
2017-10-18T07:05:12.448Z,957.46
2017-10-18T07:07:05.860Z,957.49
2017-10-18T07:08:05.816Z,957.53
2017-10-18T07:09:59.208Z,957.51
2017-10-18T07:10:59.211Z,957.58
2017-10-18T07:12:52.603Z,957.53
2017-10-18T07:13:52.613Z,957.58
2017-10-18T07:15:46.042Z,957.58
2017-10-18T07:16:46.009Z,957.54
2017-10-18T07:18:39.383Z,957.54
2017-10-18T07:19:39.407Z,957.57
2017-10-18T07:21:32.872Z,957.59
2017-10-18T07:22:32.817Z,957.57
2017-10-18T07:24:26.174Z,957.61
2017-10-18T07:25:26.236Z,957.62
2017-10-18T07:27:20.713Z,957.64
2017-10-18T07:28:20.593Z,957.64
2017-10-18T07:30:13.982Z,957.62
2017-10-18T07:31:13.993Z,957.64
2017-10-18T07:33:07.377Z,957.61
2017-10-18T07:34:07.389Z,957.60
2017-10-18T07:36:00.754Z,957.62
2017-10-18T07:37:00.777Z,957.62
2017-10-18T07:38:54.180Z,957.62
2017-10-18T07:39:54.186Z,957.62
2017-10-18T07:41:47.570Z,957.54
2017-10-18T07:42:47.563Z,957.52
2017-10-18T07:44:40.963Z,957.52
2017-10-18T07:45:41.004Z,957.55
2017-10-18T07:47:34.393Z,957.54
2017-10-18T07:48:34.386Z,957.56
2017-10-18T07:50:27.825Z,957.56
2017-10-18T07:51:27.814Z,957.52
2017-10-18T07:53:22.154Z,957.55
2017-10-18T07:54:22.169Z,957.52
2017-10-18T07:56:15.570Z,957.51
2017-10-18T07:57:15.564Z,957.50
2017-10-18T07:59:08.943Z,957.53
2017-10-18T08:00:08.946Z,957.52
2017-10-18T08:02:02.358Z,957.55
2017-10-18T08:03:02.341Z,957.55
2017-10-18T08:04:55.729Z,957.55
2017-10-18T08:05:55.735Z,957.54
2017-10-18T08:07:49.144Z,957.53
2017-10-18T08:08:49.127Z,957.52
2017-10-18T08:10:42.517Z,957.51
2017-10-18T08:11:42.571Z,957.45
2017-10-18T08:13:35.933Z,957.44
2017-10-18T08:14:35.916Z,957.42
2017-10-18T08:16:29.309Z,957.43
2017-10-18T08:17:29.309Z,957.45
2017-10-18T08:19:22.720Z,957.41
2017-10-18T08:20:22.705Z,957.41
2017-10-18T08:22:16.094Z,957.42
2017-10-18T08:23:16.207Z,957.40
2017-10-18T08:25:09.529Z,957.33
2017-10-18T08:26:09.500Z,957.37
2017-10-18T08:28:02.887Z,957.33
2017-10-18T08:29:02.891Z,957.32
2017-10-18T08:30:56.301Z,957.32
2017-10-18T08:31:56.640Z,957.33
2017-10-18T08:33:49.677Z,957.31
2017-10-18T08:34:49.803Z,957.33
2017-10-18T08:36:43.119Z,957.30
2017-10-18T08:37:43.078Z,957.29
2017-10-18T08:39:36.492Z,957.24
2017-10-18T08:40:36.482Z,957.22
2017-10-18T08:42:29.923Z,957.21
2017-10-18T08:43:29.873Z,957.20
2017-10-18T08:45:23.272Z,957.20
2017-10-18T08:46:23.265Z,957.23
2017-10-18T08:48:16.690Z,957.19
2017-10-18T08:49:16.662Z,957.23
2017-10-18T08:51:10.071Z,957.23
2017-10-18T08:52:10.069Z,957.19
2017-10-18T08:54:03.468Z,957.22
2017-10-18T08:55:03.467Z,957.19
2017-10-18T08:56:56.843Z,957.18
2017-10-18T08:57:56.852Z,957.20
2017-10-18T08:59:50.280Z,957.24
2017-10-18T09:00:50.260Z,957.20
2017-10-18T09:02:43.680Z,957.25
2017-10-18T09:03:43.720Z,957.28
2017-10-18T09:05:37.090Z,957.26
2017-10-18T09:06:37.052Z,957.29
2017-10-18T09:08:30.520Z,957.30
2017-10-18T09:09:30.513Z,957.32
2017-10-18T09:11:23.950Z,957.30
2017-10-18T09:12:23.894Z,957.28
2017-10-18T09:14:18.271Z,957.29
2017-10-18T09:15:18.290Z,957.25
2017-10-18T09:17:11.721Z,957.23
2017-10-18T09:18:11.657Z,957.24
2017-10-18T09:20:06.113Z,957.19
2017-10-18T09:21:06.087Z,957.22
2017-10-18T09:22:59.475Z,957.14
2017-10-18T09:23:59.744Z,957.14
2017-10-18T09:25:52.844Z,957.15
2017-10-18T09:26:52.862Z,957.15
2017-10-18T09:28:46.260Z,957.18
2017-10-18T09:29:46.256Z,957.18
2017-10-18T09:31:39.643Z,957.17
2017-10-18T09:32:39.649Z,957.17
2017-10-18T09:34:33.059Z,957.15
2017-10-18T09:35:33.045Z,957.16
2017-10-18T09:37:26.446Z,957.14
2017-10-18T09:38:26.452Z,957.15
2017-10-18T09:40:19.861Z,957.13
2017-10-18T09:41:19.848Z,957.11
2017-10-18T09:43:13.234Z,957.16
2017-10-18T09:44:13.238Z,957.13
2017-10-18T09:46:06.655Z,957.13
2017-10-18T09:47:06.657Z,957.13
2017-10-18T09:49:00.047Z,957.22
2017-10-18T09:50:00.039Z,957.24
2017-10-18T09:51:53.462Z,957.21
2017-10-18T09:52:53.454Z,957.30
2017-10-18T09:54:46.850Z,957.32
2017-10-18T09:55:46.875Z,957.36
2017-10-18T09:57:40.272Z,957.34
2017-10-18T09:58:40.272Z,957.36
2017-10-18T10:00:33.669Z,957.35
2017-10-18T10:01:33.675Z,957.38
2017-10-18T10:03:27.107Z,957.38
2017-10-18T10:04:27.109Z,957.36
2017-10-18T10:06:20.529Z,957.41
2017-10-18T10:07:20.542Z,957.41
2017-10-18T10:09:13.943Z,957.27
2017-10-18T10:10:13.941Z,957.23
2017-10-18T10:12:07.346Z,957.15
2017-10-18T10:13:15.017Z,957.13
2017-10-18T10:15:00.820Z,957.12
2017-10-18T10:16:00.821Z,957.17
2017-10-18T10:17:54.303Z,957.28
2017-10-18T10:18:54.265Z,957.24
2017-10-18T10:20:47.651Z,957.48
2017-10-18T10:21:55.253Z,957.52
2017-10-18T10:23:41.024Z,957.56
2017-10-18T10:24:41.032Z,957.56
2017-10-18T10:26:34.450Z,957.55
2017-10-18T10:27:34.448Z,957.56
2017-10-18T10:29:27.869Z,957.58
2017-10-18T10:30:27.896Z,957.50
2017-10-18T10:32:21.319Z,957.53
2017-10-18T10:33:21.304Z,957.50
2017-10-18T10:35:14.715Z,957.46
2017-10-18T10:36:14.739Z,957.46
2017-10-18T10:38:08.189Z,957.48
2017-10-18T10:39:08.168Z,957.48
2017-10-18T10:41:01.593Z,957.56
2017-10-18T10:42:01.606Z,957.53
2017-10-18T10:43:55.040Z,957.51
2017-10-18T10:44:55.066Z,957.52
2017-10-18T10:46:48.464Z,957.53
2017-10-18T10:47:48.477Z,957.56
2017-10-18T10:49:41.908Z,957.51
2017-10-18T10:50:41.926Z,957.52
2017-10-18T10:52:35.330Z,957.52
2017-10-18T10:53:35.348Z,957.50
2017-10-18T10:55:28.812Z,957.50
2017-10-18T10:56:28.789Z,957.50
2017-10-18T10:58:22.208Z,957.48
2017-10-18T10:59:22.240Z,957.52
2017-10-18T11:01:15.670Z,957.51
2017-10-18T11:02:15.668Z,957.48
2017-10-18T11:04:09.087Z,957.45
2017-10-18T11:05:09.106Z,957.48
2017-10-18T11:07:02.566Z,957.44
2017-10-18T11:08:02.545Z,957.38
2017-10-18T11:09:55.966Z,957.31
2017-10-18T11:10:55.988Z,957.28
2017-10-18T11:12:49.431Z,957.22
2017-10-18T11:13:49.426Z,957.27
2017-10-18T11:15:42.847Z,957.27
2017-10-18T11:16:42.872Z,957.24
2017-10-18T11:18:36.311Z,957.18
2017-10-18T11:19:36.311Z,957.20
2017-10-18T11:21:29.728Z,957.18
2017-10-18T11:22:29.752Z,957.21
2017-10-18T11:24:23.206Z,957.19
2017-10-18T11:25:23.185Z,957.21
2017-10-18T11:27:16.606Z,957.19
2017-10-18T11:28:16.628Z,957.17
2017-10-18T11:30:10.079Z,957.09
2017-10-18T11:31:10.059Z,956.97
2017-10-18T11:33:03.478Z,956.88
2017-10-18T11:34:03.500Z,957.07
2017-10-18T11:35:56.938Z,957.05
2017-10-18T11:36:56.933Z,956.92
2017-10-18T11:38:50.340Z,956.92
2017-10-18T11:39:50.375Z,956.97
2017-10-18T11:41:43.815Z,956.93
2017-10-18T11:42:43.804Z,956.92
2017-10-18T11:44:37.211Z,956.81
2017-10-18T11:45:37.236Z,956.78
2017-10-18T11:47:30.683Z,956.81
2017-10-18T11:48:30.656Z,956.72
2017-10-18T11:50:24.070Z,956.73
2017-10-18T11:51:24.089Z,956.79
2017-10-18T11:53:17.524Z,956.75
2017-10-18T11:54:17.517Z,956.76
2017-10-18T11:56:10.929Z,956.78
2017-10-18T11:57:10.968Z,956.76
2017-10-18T11:59:04.997Z,956.74
2017-10-18T12:00:04.421Z,956.67
2017-10-18T12:01:57.864Z,956.64
2017-10-18T12:02:57.866Z,956.66
2017-10-18T12:04:51.311Z,956.66
2017-10-18T12:05:51.317Z,956.60
2017-10-18T12:07:44.702Z,956.50
2017-10-18T12:08:44.740Z,956.48
2017-10-18T12:10:38.150Z,956.47
2017-10-18T12:11:38.148Z,956.42
2017-10-18T12:13:31.555Z,956.40
2017-10-18T12:14:31.601Z,956.35
2017-10-18T12:16:25.025Z,956.37
2017-10-18T12:17:24.999Z,956.32
2017-10-18T12:19:18.407Z,956.38
2017-10-18T12:20:18.424Z,956.39
2017-10-18T12:22:11.872Z,956.35
2017-10-18T12:23:11.856Z,956.34
2017-10-18T12:25:05.260Z,956.41
2017-10-18T12:26:05.278Z,956.39
2017-10-18T12:27:58.709Z,956.35
2017-10-18T12:28:58.859Z,956.37
2017-10-18T12:30:52.120Z,956.34
2017-10-18T12:31:52.126Z,956.35
2017-10-18T12:33:45.598Z,956.35
2017-10-18T12:34:45.595Z,956.36
2017-10-18T12:36:38.974Z,956.28
2017-10-18T12:37:38.999Z,956.24
2017-10-18T12:39:32.419Z,956.21
2017-10-18T12:40:32.426Z,956.22
2017-10-18T12:42:25.821Z,956.19
2017-10-18T12:43:25.843Z,956.13
2017-10-18T12:45:19.519Z,956.11
2017-10-18T12:46:19.465Z,956.06
2017-10-18T12:48:12.669Z,956.04
2017-10-18T12:49:12.682Z,955.95
2017-10-18T12:51:06.124Z,955.88
2017-10-18T12:52:06.478Z,955.88
2017-10-18T12:53:59.531Z,955.89
2017-10-18T12:54:59.532Z,955.87
2017-10-18T12:56:52.972Z,955.86
2017-10-18T12:57:52.964Z,955.83
2017-10-18T12:59:46.370Z,955.82
2017-10-18T13:00:46.386Z,955.80
2017-10-18T13:02:39.810Z,955.81
2017-10-18T13:03:39.808Z,955.74
2017-10-18T13:05:33.206Z,955.72
2017-10-18T13:06:33.222Z,955.75
2017-10-18T13:08:26.676Z,955.71
2017-10-18T13:09:26.655Z,955.70
2017-10-18T13:11:20.053Z,955.67
2017-10-18T13:12:20.080Z,955.63
2017-10-18T13:14:13.502Z,955.64
2017-10-18T13:15:13.524Z,955.63
2017-10-18T13:17:06.916Z,955.63
2017-10-18T13:18:06.915Z,955.60
2017-10-18T13:20:00.347Z,955.59
2017-10-18T13:21:00.336Z,955.60
2017-10-18T13:22:53.742Z,955.62
2017-10-18T13:23:53.768Z,955.59
2017-10-18T13:25:47.184Z,955.54
2017-10-18T13:26:47.176Z,955.57
2017-10-18T13:28:40.588Z,955.47
2017-10-18T13:29:40.591Z,955.42
2017-10-18T13:31:34.015Z,955.51
2017-10-18T13:32:34.008Z,955.55
2017-10-18T13:34:27.411Z,955.53
2017-10-18T13:35:27.426Z,955.54
2017-10-18T13:37:20.849Z,955.47
2017-10-18T13:38:20.846Z,955.45
2017-10-18T13:40:14.244Z,955.44
2017-10-18T13:41:14.257Z,955.43
2017-10-18T13:43:07.700Z,955.38
2017-10-18T13:44:07.671Z,955.38
2017-10-18T13:46:01.084Z,955.39
2017-10-18T13:47:01.088Z,955.36
2017-10-18T13:48:54.508Z,955.36
2017-10-18T13:49:54.512Z,955.36
2017-10-18T13:51:47.906Z,955.35
2017-10-18T13:52:47.918Z,955.34
2017-10-18T13:54:41.346Z,955.35
2017-10-18T13:55:41.349Z,955.34
2017-10-18T13:57:34.740Z,955.27
2017-10-18T13:58:34.759Z,955.29
2017-10-18T14:00:28.192Z,955.24
2017-10-18T14:01:28.170Z,955.22
2017-10-18T14:03:21.589Z,955.21
2017-10-18T14:04:21.597Z,955.20
2017-10-18T14:06:15.014Z,955.17
2017-10-18T14:07:15.005Z,955.20
2017-10-18T14:09:08.410Z,955.17
2017-10-18T14:10:08.421Z,955.17
2017-10-18T14:12:01.851Z,955.19
2017-10-18T14:13:01.868Z,955.18
2017-10-18T14:14:55.268Z,955.14
2017-10-18T14:15:55.377Z,955.14
2017-10-18T14:17:48.864Z,955.13
2017-10-18T14:18:48.735Z,955.17
2017-10-18T14:20:42.299Z,955.10
2017-10-18T14:21:42.137Z,955.06
2017-10-18T14:23:36.632Z,955.10
2017-10-18T14:24:36.541Z,955.09
2017-10-18T14:26:30.953Z,955.08
2017-10-18T14:27:30.972Z,955.04
2017-10-18T14:29:24.370Z,955.07
2017-10-18T14:30:32.988Z,955.04
2017-10-18T14:32:17.788Z,955.04
2017-10-18T14:33:17.781Z,954.99
2017-10-18T14:35:11.366Z,954.97
2017-10-18T14:36:11.219Z,955.03
2017-10-18T14:38:04.786Z,954.95
2017-10-18T14:39:04.645Z,954.98
2017-10-18T14:40:59.052Z,954.99
2017-10-18T14:41:59.088Z,955.03
2017-10-18T14:43:52.436Z,955.02
2017-10-18T14:44:52.462Z,955.03
2017-10-18T14:46:45.889Z,955.07
2017-10-18T14:47:45.902Z,955.05
2017-10-18T14:49:39.251Z,955.08
2017-10-18T14:50:39.303Z,955.10
2017-10-18T14:52:33.704Z,955.11
2017-10-18T14:53:33.729Z,955.18
2017-10-18T14:55:27.056Z,955.20
2017-10-18T14:56:27.067Z,955.20
2017-10-18T14:58:20.525Z,955.22
2017-10-18T14:59:20.494Z,955.20
2017-10-18T15:01:13.908Z,955.19
2017-10-18T15:02:13.903Z,955.19
2017-10-18T15:04:07.345Z,955.20
2017-10-18T15:05:07.342Z,955.22
2017-10-18T15:07:00.727Z,955.22
2017-10-18T15:08:00.747Z,955.23
2017-10-18T15:09:54.173Z,955.20
2017-10-18T15:10:54.147Z,955.19
2017-10-18T15:12:47.548Z,955.18
2017-10-18T15:13:47.577Z,955.21
2017-10-18T15:15:41.009Z,955.19
2017-10-18T15:16:40.989Z,955.18
2017-10-18T15:18:34.384Z,955.18
2017-10-18T15:19:34.404Z,955.19
2017-10-18T15:21:27.817Z,955.17
2017-10-18T15:22:27.801Z,955.17
2017-10-18T15:24:21.200Z,955.14
2017-10-18T15:25:21.219Z,955.19
2017-10-18T15:27:14.634Z,955.16
2017-10-18T15:28:14.641Z,955.11
2017-10-18T15:30:08.023Z,955.13
2017-10-18T15:31:08.033Z,955.12
2017-10-18T15:33:01.457Z,955.11
2017-10-18T15:34:01.445Z,955.12
2017-10-18T15:35:54.845Z,955.14
2017-10-18T15:36:54.866Z,955.10
2017-10-18T15:38:48.319Z,955.09
2017-10-18T15:39:48.290Z,955.12
2017-10-18T15:41:41.691Z,955.15
2017-10-18T15:42:41.713Z,955.15
2017-10-18T15:44:35.121Z,955.18
2017-10-18T15:45:35.110Z,955.15
2017-10-18T15:47:28.524Z,955.15
2017-10-18T15:48:28.522Z,955.14
2017-10-18T15:50:21.967Z,955.16
2017-10-18T15:51:21.935Z,955.17
2017-10-18T15:53:15.333Z,955.17
2017-10-18T15:54:15.352Z,955.14
2017-10-18T15:56:08.785Z,955.15
2017-10-18T15:57:08.759Z,955.14
2017-10-18T15:59:02.155Z,955.20
2017-10-18T16:00:02.160Z,955.15
2017-10-18T16:01:55.581Z,955.10
2017-10-18T16:02:55.573Z,955.16
2017-10-18T16:04:48.986Z,955.12
2017-10-18T16:05:48.989Z,955.17
2017-10-18T16:07:42.411Z,955.23
2017-10-18T16:08:42.390Z,955.22
2017-10-18T16:10:35.801Z,955.21
2017-10-18T16:11:35.802Z,955.25
2017-10-18T16:13:29.233Z,955.29
2017-10-18T16:14:29.214Z,955.30
2017-10-18T16:16:22.611Z,955.26
2017-10-18T16:17:22.621Z,955.29
2017-10-18T16:19:16.037Z,955.30
2017-10-18T16:20:16.036Z,955.31
2017-10-18T16:22:09.439Z,955.38
2017-10-18T16:23:09.465Z,955.39
2017-10-18T16:25:03.041Z,955.36
2017-10-18T16:26:02.853Z,955.44
2017-10-18T16:27:56.280Z,955.44
2017-10-18T16:28:56.263Z,955.40
2017-10-18T16:30:49.699Z,955.39
2017-10-18T16:31:49.672Z,955.36
2017-10-18T16:33:43.076Z,955.37
2017-10-18T16:34:43.136Z,955.37
2017-10-18T16:36:36.517Z,955.41
2017-10-18T16:37:36.498Z,955.42
2017-10-18T16:39:29.890Z,955.45
2017-10-18T16:40:29.906Z,955.46
2017-10-18T16:42:23.325Z,955.46
2017-10-18T16:43:23.306Z,955.48
2017-10-18T16:45:16.705Z,955.51
2017-10-18T16:46:16.709Z,955.47
2017-10-18T16:48:10.307Z,955.48
2017-10-18T16:49:10.128Z,955.50
2017-10-18T16:51:03.523Z,955.47
2017-10-18T16:52:03.529Z,955.50
2017-10-18T16:53:56.949Z,955.47
2017-10-18T16:54:56.934Z,955.49
2017-10-18T16:56:50.350Z,955.50
2017-10-18T16:57:50.338Z,955.51
2017-10-18T16:59:43.922Z,955.53
2017-10-18T17:00:43.758Z,955.55
2017-10-18T17:02:37.146Z,955.56
2017-10-18T17:03:37.168Z,955.51
2017-10-18T17:05:30.576Z,955.51
2017-10-18T17:06:30.558Z,955.54
2017-10-18T17:08:23.956Z,955.56
2017-10-18T17:09:23.978Z,955.53
2017-10-18T17:11:17.383Z,955.59
2017-10-18T17:12:17.370Z,955.61
2017-10-18T17:14:10.778Z,955.63
2017-10-18T17:15:10.811Z,955.58
2017-10-18T17:17:04.206Z,955.65
2017-10-18T17:18:04.184Z,955.66
2017-10-18T17:19:57.575Z,955.65
2017-10-18T17:20:57.591Z,955.64
2017-10-18T17:22:51.166Z,955.69
2017-10-18T17:23:50.988Z,955.65
2017-10-18T17:25:44.386Z,955.68
2017-10-18T17:26:44.390Z,955.65
2017-10-18T17:28:37.814Z,955.64
2017-10-18T17:29:37.795Z,955.60
2017-10-18T17:31:31.194Z,955.61
2017-10-18T17:32:31.212Z,955.64
2017-10-18T17:34:24.991Z,955.61
2017-10-18T17:35:24.631Z,955.64
2017-10-18T17:37:18.005Z,955.60
2017-10-18T17:38:18.124Z,955.64
2017-10-18T17:40:11.485Z,955.61
2017-10-18T17:41:11.433Z,955.62
2017-10-18T17:43:04.829Z,955.60
2017-10-18T17:44:04.844Z,955.60
2017-10-18T17:45:58.469Z,955.62
2017-10-18T17:46:58.259Z,955.65
2017-10-18T17:48:51.642Z,955.65
2017-10-18T17:49:51.660Z,955.64
2017-10-18T17:51:45.068Z,955.61
2017-10-18T17:52:45.054Z,955.65
2017-10-18T17:54:38.456Z,955.68
2017-10-18T17:55:38.468Z,955.67
2017-10-18T17:57:31.881Z,955.71
2017-10-18T17:58:31.860Z,955.65
2017-10-18T18:00:25.277Z,955.70
2017-10-18T18:01:25.303Z,955.70
2017-10-18T18:03:18.708Z,955.71